Atwater, Minnesota
Current Conditions -  °F | °C
As of 2:52 AM on Monday 20 Oct 2014 (Local Time) from KLJF Reporting Station
Clear Clear  
Wind Chill: 46°   Ceiling: Unl
Heat Index: 48°   Visibility: 10mi
Dew Point: 45°   Wind: 5mph
Humidity: 87%   Direction: 290°WNW
Pressure: 29.94"   Gusts: NA
Location:  45.14°N, 94.78°W
Report Text: KLJF 200752Z AUTO 29004KT 10SM CLR 09/07 A2994 RMK AO2
Loading
Personal Weather Stations






























Interactive Weather Map New forecast layout! Learn more

10-Day Weather Forecast

Advertisements
Track Severe Weather on mobile